KCMH/CMH METAR and TAF weather

Enter ICAO airport designator
Station Type Date Time Source
KCMH METAR 2022/01/29 12:51 UTC NOAA

KCMH 291251Z 00000KT 10SM CLR M17/M18 A3023 RMK AO2 SLP253 T11671183


Station Type Date Time Source
KCMH Decoded METAR 2022/01/29 12:51 UTC NOAA

PORT COLUMBUS INTERNATIONAL AIRPORT, OH, United States (KCMH) 40-00N 82-53W 247M
Jan 29, 2022 - 07:51 AM EST / 2022.01.29 1251 UTC
Wind: Calm:0
Visibility: 10 mile(s):0
Sky conditions: clear
Temperature: 1.9 F (-16.7 C)
Dew Point: -0.9 F (-18.3 C)
Relative Humidity: 87%
Pressure (altimeter): 30.23 in. Hg (1023 hPa)
ob: KCMH 291251Z 00000KT 10SM CLR M17/M18 A3023 RMK AO2 SLP253 T11671183
cycle: 13

Station Type Date Time Source
KCMH TAF 2022/01/29 12:33 UTC NOAA

TAF KCMH 291130Z 2912/3012 33005KT P6SM SKC
FM291900 28006KT P6SM FEW250
FM292300 22006KT P6SM SCT060 SCT100
FM300200 16004KT P6SM OVC060
FM301000 15004KT P6SM FEW060

Example: see airport list